sensor_id;sensor_type;location;lat;lon;timestamp;pressure;altitude;pressure_sealevel;temperature;humidity
56894;BME280;43392;50.078;13.704;2023-02-11T00:00:37;98619.50;;;-0.25;79.41
56894;BME280;43392;50.078;13.704;2023-02-11T00:03:04;98623.97;;;-0.25;79.36
56894;BME280;43392;50.078;13.704;2023-02-11T00:05:31;98626.78;;;-0.27;79.17
56894;BME280;43392;50.078;13.704;2023-02-11T00:07:57;98628.72;;;-0.29;79.10
56894;BME280;43392;50.078;13.704;2023-02-11T00:10:24;98622.47;;;-0.28;78.82
56894;BME280;43392;50.078;13.704;2023-02-11T00:12:50;98623.44;;;-0.29;79.26
56894;BME280;43392;50.078;13.704;2023-02-11T00:15:17;98606.47;;;-0.26;79.08
56894;BME280;43392;50.078;13.704;2023-02-11T00:17:46;98607.97;;;-0.24;79.19
56894;BME280;43392;50.078;13.704;2023-02-11T00:20:13;98597.41;;;-0.24;79.16
56894;BME280;43392;50.078;13.704;2023-02-11T00:22:40;98612.25;;;-0.23;79.14
56894;BME280;43392;50.078;13.704;2023-02-11T00:25:07;98590.66;;;-0.26;79.00
56894;BME280;43392;50.078;13.704;2023-02-11T00:27:35;98600.41;;;-0.27;78.99
56894;BME280;43392;50.078;13.704;2023-02-11T00:30:03;98594.47;;;-0.29;78.79
56894;BME280;43392;50.078;13.704;2023-02-11T00:32:29;98601.72;;;-0.31;78.38
56894;BME280;43392;50.078;13.704;2023-02-11T00:34:57;98581.78;;;-0.33;79.17
56894;BME280;43392;50.078;13.704;2023-02-11T00:37:24;98578.31;;;-0.34;79.20
56894;BME280;43392;50.078;13.704;2023-02-11T00:39:50;98588.88;;;-0.34;79.32
56894;BME280;43392;50.078;13.704;2023-02-11T00:42:17;98585.25;;;-0.33;79.47
56894;BME280;43392;50.078;13.704;2023-02-11T00:44:44;98580.31;;;-0.36;79.59
56894;BME280;43392;50.078;13.704;2023-02-11T00:47:10;98572.56;;;-0.37;79.35
56894;BME280;43392;50.078;13.704;2023-02-11T00:49:37;98574.19;;;-0.36;79.11
56894;BME280;43392;50.078;13.704;2023-02-11T00:52:06;98565.66;;;-0.38;79.44
56894;BME280;43392;50.078;13.704;2023-02-11T00:54:32;98564.03;;;-0.39;79.24
56894;BME280;43392;50.078;13.704;2023-02-11T00:56:59;98574.88;;;-0.42;79.46
56894;BME280;43392;50.078;13.704;2023-02-11T00:59:25;98566.47;;;-0.46;79.31
56894;BME280;43392;50.078;13.704;2023-02-11T01:01:52;98558.94;;;-0.49;79.41
56894;BME280;43392;50.078;13.704;2023-02-11T01:04:18;98555.66;;;-0.51;79.32
56894;BME280;43392;50.078;13.704;2023-02-11T01:06:45;98564.53;;;-0.52;79.79
56894;BME280;43392;50.078;13.704;2023-02-11T01:09:13;98562.88;;;-0.53;79.89
56894;BME280;43392;50.078;13.704;2023-02-11T01:11:40;98566.19;;;-0.51;79.85
56894;BME280;43392;50.078;13.704;2023-02-11T01:14:06;98564.34;;;-0.50;79.80
56894;BME280;43392;50.078;13.704;2023-02-11T01:16:33;98566.66;;;-0.47;79.95
56894;BME280;43392;50.078;13.704;2023-02-11T01:18:59;98564.19;;;-0.49;79.68
56894;BME280;43392;50.078;13.704;2023-02-11T01:21:26;98567.81;;;-0.50;79.44
56894;BME280;43392;50.078;13.704;2023-02-11T01:23:52;98557.28;;;-0.50;79.41
56894;BME280;43392;50.078;13.704;2023-02-11T01:26:20;98555.66;;;-0.51;79.32
56894;BME280;43392;50.078;13.704;2023-02-11T01:28:47;98531.94;;;-0.51;79.56
56894;BME280;43392;50.078;13.704;2023-02-11T01:31:13;98542.47;;;-0.51;79.58
56894;BME280;43392;50.078;13.704;2023-02-11T01:33:40;98541.63;;;-0.51;79.35
56894;BME280;43392;50.078;13.704;2023-02-11T01:36:07;98534.91;;;-0.54;79.53
56894;BME280;43392;50.078;13.704;2023-02-11T01:38:34;98530.59;;;-0.55;79.09
56894;BME280;43392;50.078;13.704;2023-02-11T01:41:03;98524.50;;;-0.55;78.91
56894;BME280;43392;50.078;13.704;2023-02-11T01:43:34;98533.56;;;-0.58;78.94
56894;BME280;43392;50.078;13.704;2023-02-11T01:46:22;98528.97;;;-0.64;79.00
56894;BME280;43392;50.078;13.704;2023-02-11T01:48:54;98531.09;;;-0.68;79.09
56894;BME280;43392;50.078;13.704;2023-02-11T01:51:23;98528.81;;;-0.71;79.65
56894;BME280;43392;50.078;13.704;2023-02-11T01:53:51;98523.69;;;-0.72;79.38
56894;BME280;43392;50.078;13.704;2023-02-11T01:56:38;98530.94;;;-0.74;79.45
56894;BME280;43392;50.078;13.704;2023-02-11T01:59:29;98524.19;;;-0.77;79.65
56894;BME280;43392;50.078;13.704;2023-02-11T02:02:00;98517.31;;;-0.78;79.76
56894;BME280;43392;50.078;13.704;2023-02-11T02:04:31;98500.50;;;-0.77;79.57
56894;BME280;43392;50.078;13.704;2023-02-11T02:07:02;98504.63;;;-0.74;79.99
56894;BME280;43392;50.078;13.704;2023-02-11T02:09:33;98493.44;;;-0.68;80.07
56894;BME280;43392;50.078;13.704;2023-02-11T02:12:02;98492.41;;;-0.67;79.71
56894;BME280;43392;50.078;13.704;2023-02-11T02:14:30;98483.53;;;-0.66;79.79
56894;BME280;43392;50.078;13.704;2023-02-11T02:16:56;98484.50;;;-0.59;79.64
56894;BME280;43392;50.078;13.704;2023-02-11T02:19:58;98482.53;;;-0.57;79.62
56894;BME280;43392;50.078;13.704;2023-02-11T02:23:12;98483.19;;;-0.55;79.08
56894;BME280;43392;50.078;13.704;2023-02-11T02:26:13;98476.09;;;-0.54;79.14
56894;BME280;43392;50.078;13.704;2023-02-11T02:29:06;98473.66;;;-0.56;79.10
56894;BME280;43392;50.078;13.704;2023-02-11T02:31:53;98471.66;;;-0.54;79.07
56894;BME280;43392;50.078;13.704;2023-02-11T02:34:29;98466.41;;;-0.54;79.36
56894;BME280;43392;50.078;13.704;2023-02-11T02:37:01;98463.75;;;-0.54;79.13
56894;BME280;43392;50.078;13.704;2023-02-11T02:39:32;98459.66;;;-0.56;79.36
56894;BME280;43392;50.078;13.704;2023-02-11T02:42:00;98447.63;;;-0.59;78.92
56894;BME280;43392;50.078;13.704;2023-02-11T02:44:28;98449.63;;;-0.61;79.07
56894;BME280;43392;50.078;13.704;2023-02-11T02:46:55;98444.69;;;-0.64;79.54
56894;BME280;43392;50.078;13.704;2023-02-11T02:49:21;98441.53;;;-0.68;79.52
56894;BME280;43392;50.078;13.704;2023-02-11T02:52:15;98439.94;;;-0.69;79.64
56894;BME280;43392;50.078;13.704;2023-02-11T02:57:37;98444.03;;;-0.74;79.49
56894;BME280;43392;50.078;13.704;2023-02-11T03:00:15;98441.59;;;-0.76;79.85
56894;BME280;43392;50.078;13.704;2023-02-11T03:02:51;98431.19;;;-0.77;79.97
56894;BME280;43392;50.078;13.704;2023-02-11T03:05:22;98428.94;;;-0.80;80.03
56894;BME280;43392;50.078;13.704;2023-02-11T03:07:57;98423.66;;;-0.80;79.86
56894;BME280;43392;50.078;13.704;2023-02-11T03:10:26;98424.63;;;-0.81;80.09
56894;BME280;43392;50.078;13.704;2023-02-11T03:12:55;98432.53;;;-0.81;79.95
56894;BME280;43392;50.078;13.704;2023-02-11T03:15:23;98407.34;;;-0.84;79.72
56894;BME280;43392;50.078;13.704;2023-02-11T03:17:53;98422.97;;;-0.82;80.24
56894;BME280;43392;50.078;13.704;2023-02-11T03:20:22;98425.63;;;-0.82;80.53
56894;BME280;43392;50.078;13.704;2023-02-11T03:22:53;98426.44;;;-0.82;79.84
56894;BME280;43392;50.078;13.704;2023-02-11T03:25:28;98428.09;;;-0.81;80.10
56894;BME280;43392;50.078;13.704;2023-02-11T03:28:00;98433.88;;;-0.85;80.14
56894;BME280;43392;50.078;13.704;2023-02-11T03:30:31;98450.97;;;-0.81;80.10
56894;BME280;43392;50.078;13.704;2023-02-11T03:33:06;98453.28;;;-0.78;80.13
56894;BME280;43392;50.078;13.704;2023-02-11T03:35:38;98438.13;;;-0.76;80.08
56894;BME280;43392;50.078;13.704;2023-02-11T03:38:12;98448.81;;;-0.70;79.94
56894;BME280;43392;50.078;13.704;2023-02-11T03:40:42;98441.41;;;-0.66;80.37
56894;BME280;43392;50.078;13.704;2023-02-11T03:43:13;98450.41;;;-0.60;80.37
56894;BME280;43392;50.078;13.704;2023-02-11T03:45:42;98434.94;;;-0.55;80.38
56894;BME280;43392;50.078;13.704;2023-02-11T03:48:14;98433.78;;;-0.53;80.20
56894;BME280;43392;50.078;13.704;2023-02-11T03:50:42;98427.34;;;-0.50;79.83
56894;BME280;43392;50.078;13.704;2023-02-11T03:53:13;98427.34;;;-0.50;80.04
56894;BME280;43392;50.078;13.704;2023-02-11T03:55:41;98436.56;;;-0.46;79.51
56894;BME280;43392;50.078;13.704;2023-02-11T03:58:09;98419.59;;;-0.44;79.51
56894;BME280;43392;50.078;13.704;2023-02-11T04:00:38;98408.69;;;-0.41;80.04
56894;BME280;43392;50.078;13.704;2023-02-11T04:03:05;98398.66;;;-0.37;79.92
56894;BME280;43392;50.078;13.704;2023-02-11T04:05:32;98385.28;;;-0.36;79.76
56894;BME280;43392;50.078;13.704;2023-02-11T04:07:59;98370.78;;;-0.32;79.83
56894;BME280;43392;50.078;13.704;2023-02-11T04:10:27;98359.88;;;-0.29;79.80
56894;BME280;43392;50.078;13.704;2023-02-11T04:12:54;98366.81;;;-0.28;79.73
56894;BME280;43392;50.078;13.704;2023-02-11T04:15:20;98347.72;;;-0.30;79.58
56894;BME280;43392;50.078;13.704;2023-02-11T04:17:47;98353.00;;;-0.30;79.82
56894;BME280;43392;50.078;13.704;2023-02-11T04:20:13;98342.25;;;-0.28;79.44
56894;BME280;43392;50.078;13.704;2023-02-11T04:22:40;98342.91;;;-0.26;79.41
56894;BME280;43392;50.078;13.704;2023-02-11T04:25:08;98342.75;;;-0.25;79.54
56894;BME280;43392;50.078;13.704;2023-02-11T04:27:36;98346.19;;;-0.24;79.47
56894;BME280;43392;50.078;13.704;2023-02-11T04:30:04;98350.28;;;-0.22;79.83
56894;BME280;43392;50.078;13.704;2023-02-11T04:32:31;98361.66;;;-0.21;79.43
56894;BME280;43392;50.078;13.704;2023-02-11T04:34:57;98353.94;;;-0.23;79.69
56894;BME280;43392;50.078;13.704;2023-02-11T04:37:24;98369.41;;;-0.20;79.45
56894;BME280;43392;50.078;13.704;2023-02-11T04:39:51;98350.13;;;-0.20;79.63
56894;BME280;43392;50.078;13.704;2023-02-11T04:42:17;98357.03;;;-0.19;79.55
56894;BME280;43392;50.078;13.704;2023-02-11T04:44:45;98370.88;;;-0.17;79.59
56894;BME280;43392;50.078;13.704;2023-02-11T04:47:12;98375.97;;;-0.16;79.63
56894;BME280;43392;50.078;13.704;2023-02-11T04:49:39;98373.97;;;-0.14;79.79
56894;BME280;43392;50.078;13.704;2023-02-11T04:52:06;98383.53;;;-0.13;79.47
56894;BME280;43392;50.078;13.704;2023-02-11T04:54:33;98390.09;;;-0.09;79.80
56894;BME280;43392;50.078;13.704;2023-02-11T04:57:00;98391.38;;;-0.05;79.59
56894;BME280;43392;50.078;13.704;2023-02-11T04:59:27;98371.94;;;-0.04;79.70
56894;BME280;43392;50.078;13.704;2023-02-11T05:01:55;98359.59;;;-0.03;79.43
56894;BME280;43392;50.078;13.704;2023-02-11T05:04:21;98360.69;;;0.03;79.77
56894;BME280;43392;50.078;13.704;2023-02-11T05:06:48;98344.19;;;0.09;79.70
56894;BME280;43392;50.078;13.704;2023-02-11T05:09:14;98330.66;;;0.12;79.83
56894;BME280;43392;50.078;13.704;2023-02-11T05:11:42;98330.47;;;0.13;79.80
56894;BME280;43392;50.078;13.704;2023-02-11T05:14:08;98335.94;;;0.12;79.39
56894;BME280;43392;50.078;13.704;2023-02-11T05:16:35;98346.00;;;0.08;79.64
56894;BME280;43392;50.078;13.704;2023-02-11T05:19:03;98350.63;;;0.06;79.63
56894;BME280;43392;50.078;13.704;2023-02-11T05:21:30;98338.63;;;0.04;79.57
56894;BME280;43392;50.078;13.704;2023-02-11T05:23:56;98336.97;;;0.03;79.87
56894;BME280;43392;50.078;13.704;2023-02-11T05:26:23;98344.88;;;0.03;79.54
56894;BME280;43392;50.078;13.704;2023-02-11T05:28:50;98334.50;;;0.01;79.81
56894;BME280;43392;50.078;13.704;2023-02-11T05:31:16;98322.34;;;0.00;79.68
56894;BME280;43392;50.078;13.704;2023-02-11T05:33:43;98317.84;;;0.00;79.61
56894;BME280;43392;50.078;13.704;2023-02-11T05:36:12;98326.78;;;-0.01;80.04
56894;BME280;43392;50.078;13.704;2023-02-11T05:38:39;98319.03;;;-0.02;80.22
56894;BME280;43392;50.078;13.704;2023-02-11T05:41:08;98329.88;;;0.03;80.35
56894;BME280;43392;50.078;13.704;2023-02-11T05:43:35;98333.00;;;0.07;80.35
56894;BME280;43392;50.078;13.704;2023-02-11T05:46:02;98337.94;;;0.10;79.88
56894;BME280;43392;50.078;13.704;2023-02-11T05:48:29;98335.94;;;0.12;80.13
56894;BME280;43392;50.078;13.704;2023-02-11T05:50:56;98328.66;;;0.14;79.94
56894;BME280;43392;50.078;13.704;2023-02-11T05:53:24;98331.09;;;0.15;80.14
56894;BME280;43392;50.078;13.704;2023-02-11T05:55:50;98339.50;;;0.19;79.88
56894;BME280;43392;50.078;13.704;2023-02-11T05:58:17;98328.59;;;0.22;79.73
56894;BME280;43392;50.078;13.704;2023-02-11T06:00:43;98333.69;;;0.23;79.75
56894;BME280;43392;50.078;13.704;2023-02-11T06:03:10;98337.69;;;0.19;79.58
56894;BME280;43392;50.078;13.704;2023-02-11T06:05:37;98336.03;;;0.18;79.83
56894;BME280;43392;50.078;13.704;2023-02-11T06:08:03;98344.94;;;0.17;79.77
56894;BME280;43392;50.078;13.704;2023-02-11T06:10:31;98342.47;;;0.16;79.91
56894;BME280;43392;50.078;13.704;2023-02-11T06:12:58;98348.59;;;0.16;80.01
56894;BME280;43392;50.078;13.704;2023-02-11T06:15:24;98357.13;;;0.18;79.77
56894;BME280;43392;50.078;13.704;2023-02-11T06:17:51;98355.13;;;0.20;79.66
56894;BME280;43392;50.078;13.704;2023-02-11T06:20:18;98345.41;;;0.21;79.78
56894;BME280;43392;50.078;13.704;2023-02-11T06:22:45;98335.50;;;0.23;80.15
56894;BME280;43392;50.078;13.704;2023-02-11T06:25:11;98343.06;;;0.26;80.07
56894;BME280;43392;50.078;13.704;2023-02-11T06:27:42;98333.16;;;0.28;80.05
56894;BME280;43392;50.078;13.704;2023-02-11T06:30:10;98337.25;;;0.30;80.21
56894;BME280;43392;50.078;13.704;2023-02-11T06:32:36;98337.06;;;0.32;79.96
56894;BME280;43392;50.078;13.704;2023-02-11T06:35:03;98343.19;;;0.32;79.80
56894;BME280;43392;50.078;13.704;2023-02-11T06:37:30;98343.66;;;0.36;80.14
56894;BME280;43392;50.078;13.704;2023-02-11T06:39:56;98341.66;;;0.38;80.25
56894;BME280;43392;50.078;13.704;2023-02-11T06:42:23;98340.28;;;0.42;80.08
56894;BME280;43392;50.078;13.704;2023-02-11T06:44:51;98337.50;;;0.43;79.98
56894;BME280;43392;50.078;13.704;2023-02-11T06:47:17;98336.97;;;0.48;79.94
56894;BME280;43392;50.078;13.704;2023-02-11T06:49:44;98342.88;;;0.50;80.02
56894;BME280;43392;50.078;13.704;2023-02-11T06:52:11;98330.31;;;0.52;79.93
56894;BME280;43392;50.078;13.704;2023-02-11T06:54:37;98336.41;;;0.52;79.74
56894;BME280;43392;50.078;13.704;2023-02-11T06:57:04;98341.50;;;0.54;80.01
56894;BME280;43392;50.078;13.704;2023-02-11T06:59:31;98344.78;;;0.56;79.76
56894;BME280;43392;50.078;13.704;2023-02-11T07:01:59;98345.47;;;0.58;79.50
56894;BME280;43392;50.078;13.704;2023-02-11T07:04:25;98342.81;;;0.58;79.51
56894;BME280;43392;50.078;13.704;2023-02-11T07:06:52;98346.91;;;0.60;79.69
56894;BME280;43392;50.078;13.704;2023-02-11T07:09:18;98354.28;;;0.65;79.58
56894;BME280;43392;50.078;13.704;2023-02-11T07:11:45;98352.09;;;0.68;79.76
56894;BME280;43392;50.078;13.704;2023-02-11T07:14:11;98349.13;;;0.72;79.70
56894;BME280;43392;50.078;13.704;2023-02-11T07:16:38;98363.78;;;0.74;79.62
56894;BME280;43392;50.078;13.704;2023-02-11T07:19:06;98376.63;;;0.77;79.69
56894;BME280;43392;50.078;13.704;2023-02-11T07:21:33;98369.19;;;1.10;81.55
56894;BME280;43392;50.078;13.704;2023-02-11T07:24:00;98365.84;;;1.16;79.09
56894;BME280;43392;50.078;13.704;2023-02-11T07:26:27;98365.00;;;1.15;78.82
56894;BME280;43392;50.078;13.704;2023-02-11T07:28:54;98351.97;;;1.14;79.04
56894;BME280;43392;50.078;13.704;2023-02-11T07:31:22;98353.44;;;1.16;79.04
56894;BME280;43392;50.078;13.704;2023-02-11T07:33:51;98361.81;;;1.20;78.76
56894;BME280;43392;50.078;13.704;2023-02-11T07:36:19;98364.75;;;1.25;78.44
56894;BME280;43392;50.078;13.704;2023-02-11T07:38:46;98348.13;;;1.31;78.53
56894;BME280;43392;50.078;13.704;2023-02-11T07:41:14;98345.41;;;1.39;78.32
56894;BME280;43392;50.078;13.704;2023-02-11T07:43:42;98345.88;;;1.43;78.13
56894;BME280;43392;50.078;13.704;2023-02-11T07:46:11;98351.78;;;1.45;78.16
56894;BME280;43392;50.078;13.704;2023-02-11T07:48:39;98349.78;;;1.47;77.93
56894;BME280;43392;50.078;13.704;2023-02-11T07:51:07;98347.59;;;1.50;78.22
56894;BME280;43392;50.078;13.704;2023-02-11T07:53:35;98338.22;;;1.48;78.06
56894;BME280;43392;50.078;13.704;2023-02-11T07:56:03;98344.78;;;1.52;77.93
56894;BME280;43392;50.078;13.704;2023-02-11T07:58:30;98348.50;;;1.57;77.90
56894;BME280;43392;50.078;13.704;2023-02-11T08:01:00;98355.75;;;1.70;77.85
56894;BME280;43392;50.078;13.704;2023-02-11T08:03:26;98355.22;;;1.74;77.65
56894;BME280;43392;50.078;13.704;2023-02-11T08:05:53;98351.38;;;1.77;77.66
56894;BME280;43392;50.078;13.704;2023-02-11T08:08:19;98345.81;;;1.86;77.80
56894;BME280;43392;50.078;13.704;2023-02-11T08:10:47;98354.63;;;1.93;77.34
56894;BME280;43392;50.078;13.704;2023-02-11T08:13:14;98347.06;;;1.90;77.41
56894;BME280;43392;50.078;13.704;2023-02-11T08:15:40;98361.91;;;1.91;77.24
56894;BME280;43392;50.078;13.704;2023-02-11T08:18:07;98361.69;;;1.86;77.53
56894;BME280;43392;50.078;13.704;2023-02-11T08:20:33;98357.56;;;1.84;77.56
56894;BME280;43392;50.078;13.704;2023-02-11T08:23:00;98360.38;;;1.82;77.57
56894;BME280;43392;50.078;13.704;2023-02-11T08:25:27;98363.66;;;1.84;77.82
56894;BME280;43392;50.078;13.704;2023-02-11T08:27:55;98367.75;;;1.87;77.75
56894;BME280;43392;50.078;13.704;2023-02-11T08:30:21;98372.41;;;1.85;77.88
56894;BME280;43392;50.078;13.704;2023-02-11T08:32:49;98363.03;;;1.82;77.87
56894;BME280;43392;50.078;13.704;2023-02-11T08:35:16;98371.84;;;1.89;78.01
56894;BME280;43392;50.078;13.704;2023-02-11T08:37:43;98367.84;;;1.93;77.86
56894;BME280;43392;50.078;13.704;2023-02-11T08:40:10;98368.28;;;1.97;77.93
56894;BME280;43392;50.078;13.704;2023-02-11T08:42:36;98365.28;;;2.00;77.65
56894;BME280;43392;50.078;13.704;2023-02-11T08:45:05;98368.28;;;1.97;78.01
56894;BME280;43392;50.078;13.704;2023-02-11T08:47:32;98374.03;;;2.00;78.24
56894;BME280;43392;50.078;13.704;2023-02-11T08:49:58;98372.59;;;2.19;80.60
56894;BME280;43392;50.078;13.704;2023-02-11T08:52:25;98369.97;;;2.40;77.56
56894;BME280;43392;50.078;13.704;2023-02-11T08:54:52;98363.84;;;2.40;77.16
56894;BME280;43392;50.078;13.704;2023-02-11T08:57:18;98366.47;;;2.40;77.22
56894;BME280;43392;50.078;13.704;2023-02-11T08:59:45;98362.28;;;2.45;77.47
56894;BME280;43392;50.078;13.704;2023-02-11T09:02:13;98359.25;;;2.48;77.34
56894;BME280;43392;50.078;13.704;2023-02-11T09:04:40;98387.59;;;2.54;77.25
56894;BME280;43392;50.078;13.704;2023-02-11T09:07:06;98374.19;;;2.56;77.07
56894;BME280;43392;50.078;13.704;2023-02-11T09:09:33;98369.06;;;2.54;76.96
56894;BME280;43392;50.078;13.704;2023-02-11T09:12:00;98378.66;;;2.55;77.15
56894;BME280;43392;50.078;13.704;2023-02-11T09:14:26;98376.38;;;2.52;77.30
56894;BME280;43392;50.078;13.704;2023-02-11T09:16:53;98376.38;;;2.52;77.74
56894;BME280;43392;50.078;13.704;2023-02-11T09:19:23;98363.16;;;2.52;77.58
56894;BME280;43392;50.078;13.704;2023-02-11T09:21:49;98365.78;;;2.52;77.68
56894;BME280;43392;50.078;13.704;2023-02-11T09:24:16;98375.81;;;2.57;77.58
56894;BME280;43392;50.078;13.704;2023-02-11T09:26:42;98378.34;;;2.65;77.58
56894;BME280;43392;50.078;13.704;2023-02-11T09:29:09;98381.22;;;2.70;77.55
56894;BME280;43392;50.078;13.704;2023-02-11T09:31:35;98374.53;;;2.74;77.56
56894;BME280;43392;50.078;13.704;2023-02-11T09:34:03;98370.31;;;2.80;77.59
56894;BME280;43392;50.078;13.704;2023-02-11T09:36:33;98373.41;;;2.83;77.43
56894;BME280;43392;50.078;13.704;2023-02-11T09:39:02;98378.75;;;2.90;77.92
56894;BME280;43392;50.078;13.704;2023-02-11T09:41:38;98381.03;;;2.93;77.58
56894;BME280;43392;50.078;13.704;2023-02-11T09:44:09;98383.59;;;2.86;77.40
56894;BME280;43392;50.078;13.704;2023-02-11T09:46:47;98384.00;;;2.83;77.64
56894;BME280;43392;50.078;13.704;2023-02-11T09:49:18;98378.47;;;2.78;77.64
56894;BME280;43392;50.078;13.704;2023-02-11T09:51:51;98382.59;;;3.49;80.02
56894;BME280;43392;50.078;13.704;2023-02-11T09:54:26;98390.16;;;3.46;76.60
56894;BME280;43392;50.078;13.704;2023-02-11T09:56:54;98396.31;;;3.25;76.59
56894;BME280;43392;50.078;13.704;2023-02-11T09:59:21;98401.31;;;3.07;77.01
56894;BME280;43392;50.078;13.704;2023-02-11T10:01:50;98395.72;;;2.95;77.56
56894;BME280;43392;50.078;13.704;2023-02-11T10:04:29;98400.94;;;2.89;77.89
56894;BME280;43392;50.078;13.704;2023-02-11T10:07:09;98402.34;;;2.85;78.19
56894;BME280;43392;50.078;13.704;2023-02-11T10:09:48;98397.06;;;2.85;78.35
56894;BME280;43392;50.078;13.704;2023-02-11T10:12:33;98390.97;;;2.91;78.57
56894;BME280;43392;50.078;13.704;2023-02-11T10:15:14;98389.84;;;3.00;78.25
56894;BME280;43392;50.078;13.704;2023-02-11T10:17:52;98398.81;;;3.05;78.38
56894;BME280;43392;50.078;13.704;2023-02-11T10:20:29;98396.25;;;3.12;78.19
56894;BME280;43392;50.078;13.704;2023-02-11T10:22:59;98386.50;;;3.19;77.99
56894;BME280;43392;50.078;13.704;2023-02-11T10:25:32;98385.53;;;3.26;77.89
56894;BME280;43392;50.078;13.704;2023-02-11T10:28:01;98383.75;;;3.33;78.00
56894;BME280;43392;50.078;13.704;2023-02-11T10:30:39;98375.63;;;3.42;78.12
56894;BME280;43392;50.078;13.704;2023-02-11T10:33:10;98370.59;;;3.53;77.71
56894;BME280;43392;50.078;13.704;2023-02-11T10:35:38;98368.19;;;3.58;77.76
56894;BME280;43392;50.078;13.704;2023-02-11T10:38:07;98358.19;;;3.60;77.67
56894;BME280;43392;50.078;13.704;2023-02-11T10:40:33;98362.69;;;3.66;77.65
56894;BME280;43392;50.078;13.704;2023-02-11T10:43:03;98358.00;;;3.68;77.70
56894;BME280;43392;50.078;13.704;2023-02-11T10:45:32;98366.41;;;3.72;77.86
56894;BME280;43392;50.078;13.704;2023-02-11T10:48:00;98354.97;;;3.71;77.71
56894;BME280;43392;50.078;13.704;2023-02-11T10:50:31;98349.69;;;3.78;77.84
56894;BME280;43392;50.078;13.704;2023-02-11T10:53:16;98347.91;;;3.85;77.79
56894;BME280;43392;50.078;13.704;2023-02-11T10:55:49;98346.69;;;3.87;77.61
56894;BME280;43392;50.078;13.704;2023-02-11T10:58:23;98350.56;;;3.91;77.80
56894;BME280;43392;50.078;13.704;2023-02-11T11:00:52;98349.75;;;3.91;77.65
56894;BME280;43392;50.078;13.704;2023-02-11T11:03:22;98358.53;;;3.91;77.93
56894;BME280;43392;50.078;13.704;2023-02-11T11:05:50;98341.19;;;3.95;78.04
56894;BME280;43392;50.078;13.704;2023-02-11T11:08:19;98351.22;;;4.07;77.74
56894;BME280;43392;50.078;13.704;2023-02-11T11:10:47;98357.53;;;4.06;77.57
56894;BME280;43392;50.078;13.704;2023-02-11T11:13:39;98349.41;;;4.14;77.43
56894;BME280;43392;50.078;13.704;2023-02-11T11:16:22;98333.09;;;4.23;77.29
56894;BME280;43392;50.078;13.704;2023-02-11T11:18:50;98334.97;;;4.36;77.01
56894;BME280;43392;50.078;13.704;2023-02-11T11:21:19;98329.66;;;4.49;76.88
56894;BME280;43392;50.078;13.704;2023-02-11T11:23:55;98324.34;;;4.62;76.28
56894;BME280;43392;50.078;13.704;2023-02-11T11:26:23;98323.09;;;4.58;76.13
56894;BME280;43392;50.078;13.704;2023-02-11T11:28:55;98320.88;;;4.68;76.01
56894;BME280;43392;50.078;13.704;2023-02-11T11:31:23;98326.19;;;4.61;75.87
56894;BME280;43392;50.078;13.704;2023-02-11T11:33:53;98315.13;;;4.58;76.18
56894;BME280;43392;50.078;13.704;2023-02-11T11:36:23;98335.78;;;4.56;76.04
56894;BME280;43392;50.078;13.704;2023-02-11T11:38:59;98352.72;;;4.48;76.73
56894;BME280;43392;50.078;13.704;2023-02-11T11:41:28;98366.81;;;4.42;77.14
56894;BME280;43392;50.078;13.704;2023-02-11T11:44:00;98366.00;;;4.35;77.48
56894;BME280;43392;50.078;13.704;2023-02-11T11:46:30;98341.72;;;4.38;77.39
56894;BME280;43392;50.078;13.704;2023-02-11T11:49:04;98348.03;;;4.37;77.37
56894;BME280;43392;50.078;13.704;2023-02-11T11:51:32;98338.41;;;4.36;77.22
56894;BME280;43392;50.078;13.704;2023-02-11T11:54:03;98328.44;;;4.38;77.16
56894;BME280;43392;50.078;13.704;2023-02-11T11:56:34;98316.38;;;4.36;76.96
56894;BME280;43392;50.078;13.704;2023-02-11T11:59:09;98329.81;;;4.41;77.23
56894;BME280;43392;50.078;13.704;2023-02-11T12:01:42;98337.63;;;4.36;77.12
56894;BME280;43392;50.078;13.704;2023-02-11T12:04:25;98323.69;;;4.34;77.09
56894;BME280;43392;50.078;13.704;2023-02-11T12:07:05;98316.75;;;4.39;77.21
56894;BME280;43392;50.078;13.704;2023-02-11T12:09:48;98319.84;;;4.49;77.02
56894;BME280;43392;50.078;13.704;2023-02-11T12:12:26;98316.56;;;4.54;76.46
56894;BME280;43392;50.078;13.704;2023-02-11T12:15:05;98306.97;;;4.59;76.06
56894;BME280;43392;50.078;13.704;2023-02-11T12:17:44;98296.13;;;4.61;75.98
56894;BME280;43392;50.078;13.704;2023-02-11T12:20:28;98298.00;;;4.67;76.03
56894;BME280;43392;50.078;13.704;2023-02-11T12:23:16;98309.84;;;4.71;76.83
56894;BME280;43392;50.078;13.704;2023-02-11T12:25:51;98306.88;;;5.31;80.40
56894;BME280;43392;50.078;13.704;2023-02-11T12:28:28;98312.97;;;5.38;74.37
56894;BME280;43392;50.078;13.704;2023-02-11T12:31:14;98304.25;;;5.12;73.98
56894;BME280;43392;50.078;13.704;2023-02-11T12:33:53;98311.66;;;4.90;74.88
56894;BME280;43392;50.078;13.704;2023-02-11T12:36:34;98309.22;;;4.76;75.22
56894;BME280;43392;50.078;13.704;2023-02-11T12:39:14;98325.78;;;4.64;75.54
56894;BME280;43392;50.078;13.704;2023-02-11T12:41:56;98306.97;;;4.59;75.84
56894;BME280;43392;50.078;13.704;2023-02-11T12:44:57;98304.31;;;4.59;75.98
56894;BME280;43392;50.078;13.704;2023-02-11T12:47:34;98295.53;;;4.65;75.80
56894;BME280;43392;50.078;13.704;2023-02-11T12:50:13;98304.72;;;4.76;75.43
56894;BME280;43392;50.078;13.704;2023-02-11T12:52:58;98299.81;;;4.86;75.04
56894;BME280;43392;50.078;13.704;2023-02-11T12:55:29;98307.56;;;4.88;75.18
56894;BME280;43392;50.078;13.704;2023-02-11T12:58:03;98295.09;;;4.88;74.45
56894;BME280;43392;50.078;13.704;2023-02-11T13:00:39;98301.03;;;4.90;74.81
56894;BME280;43392;50.078;13.704;2023-02-11T13:03:11;98304.69;;;4.96;74.54
56894;BME280;43392;50.078;13.704;2023-02-11T13:05:43;98294.06;;;4.96;74.32
56894;BME280;43392;50.078;13.704;2023-02-11T13:08:14;98294.69;;;4.98;74.10
56894;BME280;43392;50.078;13.704;2023-02-11T13:10:46;98288.97;;;5.01;73.89
56894;BME280;43392;50.078;13.704;2023-02-11T13:13:18;98284.47;;;5.01;73.94